createdAt,value
2022-08-12T00:00:53.728Z,22.42
2022-08-12T00:02:44.114Z,22.36
2022-08-12T00:04:34.435Z,22.25
2022-08-12T00:06:25.118Z,22.23
2022-08-12T00:08:15.799Z,22.24
2022-08-12T00:10:06.610Z,22.24
2022-08-12T00:11:56.563Z,22.23
2022-08-12T00:13:46.967Z,22.25
2022-08-12T00:15:37.029Z,22.27
2022-08-12T00:17:27.501Z,22.31
2022-08-12T00:19:17.657Z,22.34
2022-08-12T00:21:08.154Z,22.37
2022-08-12T00:22:59.885Z,22.40
2022-08-12T00:24:50.591Z,22.40
2022-08-12T00:26:40.993Z,22.41
2022-08-12T00:28:33.811Z,22.42
2022-08-12T00:30:27.004Z,22.40
2022-08-12T00:32:36.144Z,22.40
2022-08-12T00:37:29.125Z,22.37
2022-08-12T00:39:20.247Z,22.37
2022-08-12T00:41:10.816Z,22.37
2022-08-12T00:42:42.712Z,22.35
2022-08-12T00:44:15.165Z,22.33
2022-08-12T00:46:05.579Z,22.33
2022-08-12T00:47:37.263Z,22.29
2022-08-12T00:49:09.355Z,22.27
2022-08-12T00:50:40.964Z,22.27
2022-08-12T00:52:13.331Z,22.27
2022-08-12T00:53:45.049Z,22.29
2022-08-12T00:55:16.686Z,22.32
2022-08-12T00:56:48.783Z,22.35
2022-08-12T00:58:23.006Z,22.35
2022-08-12T00:59:55.651Z,22.34
2022-08-12T01:01:27.720Z,22.30
2022-08-12T01:03:19.792Z,22.30
2022-08-12T01:05:17.021Z,22.30
2022-08-12T01:07:07.219Z,22.27
2022-08-12T01:08:57.409Z,22.19
2022-08-12T01:10:48.294Z,22.08
2022-08-12T01:12:20.385Z,21.97
2022-08-12T01:13:55.769Z,21.92
2022-08-12T01:15:30.919Z,21.85
2022-08-12T03:10:37.995Z,19.86
2022-08-12T03:14:40.915Z,19.65
2022-08-12T03:16:16.791Z,19.56
2022-08-12T03:18:24.623Z,19.51
2022-08-12T03:20:10.228Z,19.49
2022-08-12T03:21:55.506Z,19.46
2022-08-12T03:23:40.620Z,19.53
2022-08-12T03:25:13.362Z,19.55
2022-08-12T03:26:44.964Z,19.53
2022-08-12T03:28:38.613Z,19.48
2022-08-12T03:30:15.703Z,19.46
2022-08-12T03:31:51.094Z,19.40
2022-08-12T03:33:27.040Z,19.36
2022-08-12T03:37:29.163Z,19.29
2022-08-12T03:39:36.493Z,19.29
2022-08-12T03:41:30.807Z,19.25
2022-08-12T03:43:21.503Z,19.24
2022-08-12T03:45:14.409Z,19.26
2022-08-12T03:47:06.049Z,19.29
2022-08-12T03:48:58.286Z,19.32
2022-08-12T03:50:48.429Z,19.35
2022-08-12T03:52:39.011Z,19.40
2022-08-12T03:54:29.232Z,19.50
2022-08-12T03:56:19.425Z,19.54
2022-08-12T03:58:09.874Z,19.52
2022-08-12T04:00:00.222Z,19.52
2022-08-12T04:01:31.904Z,19.49
2022-08-12T04:03:37.828Z,19.55
2022-08-12T04:05:16.496Z,19.64
2022-08-12T04:06:57.535Z,19.75
2022-08-12T04:11:57.829Z,19.86
2022-08-12T04:13:30.156Z,19.88
2022-08-12T04:15:01.729Z,19.89
2022-08-12T04:16:33.724Z,19.88
2022-08-12T04:18:07.421Z,19.89
2022-08-12T04:19:39.812Z,19.88
2022-08-12T04:21:11.402Z,19.82
2022-08-12T04:22:44.208Z,19.83
2022-08-12T04:24:16.327Z,19.84
2022-08-12T04:25:47.961Z,19.87
2022-08-12T04:27:19.774Z,19.83
2022-08-12T04:28:51.456Z,19.79
2022-08-12T04:30:33.253Z,19.77
2022-08-12T04:32:07.026Z,19.76
2022-08-12T04:33:40.028Z,19.75
2022-08-12T04:35:12.028Z,19.76
2022-08-12T04:36:44.498Z,19.75
2022-08-12T04:38:16.390Z,19.75
2022-08-12T04:39:48.177Z,19.70
2022-08-12T04:41:20.970Z,19.67
2022-08-12T04:42:52.545Z,19.66
2022-08-12T04:44:24.101Z,19.66
2022-08-12T04:45:56.098Z,19.68
2022-08-12T04:47:27.950Z,19.74
2022-08-12T04:49:00.356Z,19.79
2022-08-12T04:50:34.936Z,19.80
2022-08-12T04:52:07.226Z,19.81
2022-08-12T04:53:40.114Z,19.82
2022-08-12T04:55:13.147Z,19.81
2022-08-12T04:56:44.742Z,19.76
2022-08-12T04:58:36.682Z,19.74
2022-08-12T05:00:12.187Z,19.70
2022-08-12T05:01:43.777Z,19.64
2022-08-12T05:03:15.354Z,19.65
2022-08-12T05:04:47.804Z,19.62
2022-08-12T05:06:26.638Z,19.59
2022-08-12T05:07:59.063Z,19.57
2022-08-12T05:09:55.355Z,19.58
2022-08-12T05:11:25.432Z,19.61
2022-08-12T05:12:58.190Z,19.66
2022-08-12T05:17:27.248Z,19.76
2022-08-12T05:19:01.031Z,19.79
2022-08-12T05:20:32.691Z,19.81
2022-08-12T05:22:04.265Z,19.81
2022-08-12T05:23:39.069Z,19.84
2022-08-12T05:25:12.157Z,19.86
2022-08-12T05:26:43.676Z,19.90
2022-08-12T05:28:16.226Z,19.95
2022-08-12T05:30:07.233Z,19.97
2022-08-12T05:31:47.520Z,19.93
2022-08-12T05:33:20.159Z,19.88
2022-08-12T05:34:53.477Z,19.89
2022-08-12T05:36:25.075Z,19.92
2022-08-12T05:38:14.926Z,19.97
2022-08-12T05:39:49.730Z,20.00
2022-08-12T05:41:27.009Z,20.07
2022-08-12T05:43:02.971Z,20.12
2022-08-12T05:49:43.448Z,20.37
2022-08-12T05:51:16.270Z,20.42
2022-08-12T05:52:48.604Z,20.46
2022-08-12T05:54:35.323Z,20.53
2022-08-12T05:56:19.729Z,20.62
2022-08-12T05:57:55.431Z,20.72
2022-08-12T05:59:26.976Z,20.81
2022-08-12T06:00:59.341Z,20.88
2022-08-12T06:02:51.340Z,20.94
2022-08-12T06:04:23.064Z,21.00
2022-08-12T06:05:57.289Z,21.07
2022-08-12T06:08:00.590Z,21.09
2022-08-12T06:09:22.892Z,21.16
2022-08-12T06:10:56.012Z,21.18
2022-08-12T06:12:27.897Z,21.23
2022-08-12T06:14:00.025Z,21.36
2022-08-12T06:15:32.255Z,21.53
2022-08-12T06:17:04.559Z,21.71
2022-08-12T06:18:40.068Z,21.88
2022-08-12T06:20:26.594Z,22.02
2022-08-12T06:22:03.939Z,22.14
2022-08-12T06:35:25.314Z,22.59
2022-08-12T06:36:30.030Z,22.62
2022-08-12T06:38:04.759Z,22.70
2022-08-12T06:39:36.354Z,22.82
2022-08-12T06:41:26.423Z,22.91
2022-08-12T06:43:01.410Z,22.98
2022-08-12T06:44:37.273Z,23.02
2022-08-12T06:46:15.003Z,23.07
2022-08-12T06:50:49.367Z,23.18
2022-08-12T06:52:26.872Z,23.24
2022-08-12T06:53:58.987Z,23.30
2022-08-12T06:55:30.619Z,23.36
2022-08-12T06:57:04.942Z,23.38
2022-08-12T06:58:55.906Z,23.45
2022-08-12T07:00:32.443Z,23.43
2022-08-12T07:02:04.683Z,23.45
2022-08-12T07:03:36.775Z,23.52
2022-08-12T07:05:08.548Z,23.48
2022-08-12T07:06:40.198Z,23.50
2022-08-12T07:08:12.153Z,23.56
2022-08-12T07:10:06.984Z,23.54
2022-08-12T07:11:35.364Z,23.54
2022-08-12T07:13:09.513Z,23.51
2022-08-12T07:14:42.888Z,23.43
2022-08-12T07:16:17.863Z,23.42
2022-08-12T07:17:49.623Z,23.53
2022-08-12T07:19:21.306Z,23.65
2022-08-12T07:20:53.505Z,23.78
2022-08-12T07:22:25.767Z,23.88
2022-08-12T07:23:57.340Z,23.95
2022-08-12T07:25:40.978Z,24.02
2022-08-12T07:27:13.245Z,24.07
2022-08-12T07:28:45.091Z,24.12
2022-08-12T07:30:17.248Z,24.16
2022-08-12T07:31:48.881Z,24.26
2022-08-12T07:33:22.420Z,24.30
2022-08-12T07:34:54.774Z,24.35
2022-08-12T07:36:27.638Z,24.42
2022-08-12T07:38:00.674Z,24.48
2022-08-12T07:39:32.296Z,24.49
2022-08-12T07:41:06.271Z,24.49
2022-08-12T07:42:38.277Z,24.57
2022-08-12T07:44:10.259Z,24.58
2022-08-12T07:45:41.849Z,24.59
2022-08-12T07:47:13.628Z,24.67
2022-08-12T07:48:49.096Z,24.82
2022-08-12T07:50:23.797Z,25.01
2022-08-12T07:51:55.761Z,25.18
2022-08-12T07:53:28.094Z,25.32
2022-08-12T07:55:00.073Z,25.49
2022-08-12T07:56:32.106Z,25.62
2022-08-12T07:58:04.043Z,25.65
2022-08-12T07:59:36.010Z,25.79
2022-08-12T08:01:12.060Z,25.87
2022-08-12T08:02:44.112Z,25.95
2022-08-12T08:04:34.312Z,26.07
2022-08-12T08:06:18.967Z,26.21
2022-08-12T08:07:53.577Z,26.20
2022-08-12T08:09:25.413Z,26.17
2022-08-12T08:11:17.812Z,26.23
2022-08-12T08:12:56.146Z,26.43
2022-08-12T08:14:32.746Z,26.62
2022-08-12T08:16:05.906Z,26.77
2022-08-12T08:17:38.675Z,26.90
2022-08-12T08:19:19.513Z,26.90
2022-08-12T08:20:51.103Z,26.87
2022-08-12T08:22:40.764Z,26.83
2022-08-12T08:24:17.211Z,26.82
2022-08-12T08:25:51.120Z,26.83
2022-08-12T08:27:23.340Z,26.84
2022-08-12T08:28:55.077Z,26.89
2022-08-12T08:30:27.375Z,26.94
2022-08-12T08:37:06.801Z,27.15
2022-08-12T08:38:41.799Z,27.14
2022-08-12T08:40:48.611Z,27.17
2022-08-12T08:42:40.653Z,27.25
2022-08-12T08:44:13.131Z,27.33
2022-08-12T08:45:45.849Z,27.37
2022-08-12T08:47:17.648Z,27.61
2022-08-12T08:48:49.276Z,27.83
2022-08-12T08:50:21.266Z,28.03
2022-08-12T08:51:52.967Z,28.08
2022-08-12T08:53:24.773Z,28.15
2022-08-12T08:54:56.414Z,28.17
2022-08-12T08:56:31.038Z,28.20
2022-08-12T08:58:03.446Z,28.21
2022-08-12T08:59:35.226Z,28.30
2022-08-12T09:01:06.911Z,28.51
2022-08-12T09:02:38.635Z,28.51
2022-08-12T09:05:07.874Z,28.41
2022-08-12T09:06:03.769Z,28.27
2022-08-12T09:07:51.542Z,28.27
2022-08-12T09:14:11.502Z,28.76
2022-08-12T09:15:35.829Z,28.81
2022-08-12T09:17:08.270Z,28.83
2022-08-12T09:18:41.187Z,29.03
2022-08-12T09:20:16.009Z,29.25
2022-08-12T09:24:00.418Z,29.18
2022-08-12T09:25:33.570Z,29.08
2022-08-12T09:27:06.416Z,29.02
2022-08-12T09:30:41.921Z,29.00
2022-08-12T09:32:56.236Z,29.02
2022-08-12T09:34:26.031Z,28.99
2022-08-12T09:36:04.997Z,28.78
2022-08-12T09:37:57.725Z,28.84
2022-08-12T09:40:02.061Z,28.80
2022-08-12T09:42:32.892Z,28.77
2022-08-12T09:43:36.155Z,28.90
2022-08-12T09:46:05.189Z,28.97
2022-08-12T09:47:15.376Z,28.92
2022-08-12T09:48:56.305Z,29.06
2022-08-12T09:50:28.696Z,29.17
2022-08-12T09:52:00.345Z,29.20
2022-08-12T09:53:36.278Z,29.19
2022-08-12T09:56:06.744Z,29.16
2022-08-12T09:58:45.515Z,29.20
2022-08-12T09:59:10.168Z,29.08
2022-08-12T10:00:48.563Z,29.00
2022-08-12T10:02:45.915Z,28.90
2022-08-12T10:04:19.938Z,28.91
2022-08-12T10:06:20.490Z,29.06
2022-08-12T10:07:45.236Z,29.24
2022-08-12T10:09:16.991Z,29.41
2022-08-12T10:11:07.636Z,29.57
2022-08-12T10:13:07.058Z,29.69
2022-08-12T10:14:50.422Z,29.69
2022-08-12T10:16:29.237Z,29.87
2022-08-12T10:18:06.609Z,30.05
2022-08-12T10:19:40.518Z,30.12
2022-08-12T10:21:35.719Z,30.18
2022-08-12T10:23:09.461Z,30.18
2022-08-12T10:25:04.840Z,30.13
2022-08-12T10:27:08.088Z,29.99
2022-08-12T10:30:01.898Z,29.98
2022-08-12T10:30:58.930Z,30.14
2022-08-12T10:32:44.374Z,30.17
2022-08-12T10:34:26.329Z,30.20
2022-08-12T10:36:00.502Z,30.18
2022-08-12T10:38:36.481Z,30.29
2022-08-12T10:40:08.251Z,30.28
2022-08-12T10:41:57.174Z,30.09
2022-08-12T10:43:54.373Z,29.88
2022-08-12T10:45:30.363Z,29.55
2022-08-12T10:47:02.628Z,29.44
2022-08-12T10:48:58.379Z,29.49
2022-08-12T10:50:58.480Z,29.60
2022-08-12T10:52:34.959Z,29.65
2022-08-12T10:54:13.377Z,29.73
2022-08-12T10:55:45.135Z,29.77
2022-08-12T10:57:18.410Z,29.85
2022-08-12T10:59:11.155Z,29.94
2022-08-12T11:00:54.899Z,30.06
2022-08-12T11:04:25.544Z,30.15
2022-08-12T11:04:35.807Z,30.23
2022-08-12T11:07:08.460Z,30.18
2022-08-12T11:08:34.387Z,30.18
2022-08-12T11:10:01.287Z,30.18
2022-08-12T11:12:35.216Z,30.23
2022-08-12T11:13:46.247Z,30.30
2022-08-12T11:15:32.926Z,30.23
2022-08-12T11:17:43.944Z,30.26
2022-08-12T11:19:06.758Z,30.34
2022-08-12T11:20:38.918Z,30.35
2022-08-12T11:22:10.742Z,30.35
2022-08-12T11:23:43.182Z,30.35
2022-08-12T11:25:25.653Z,30.18
2022-08-12T11:27:17.212Z,29.84
2022-08-12T11:28:50.443Z,29.58
2022-08-12T11:30:37.169Z,29.37
2022-08-12T11:32:08.782Z,29.29
2022-08-12T11:34:06.825Z,29.20
2022-08-12T11:35:33.076Z,29.07
2022-08-12T11:37:25.683Z,28.93
2022-08-12T11:39:05.265Z,28.80
2022-08-12T11:40:37.146Z,28.80
2022-08-12T11:42:14.782Z,28.87
2022-08-12T11:43:50.776Z,28.88
2022-08-12T11:45:30.482Z,28.86
2022-08-12T11:47:10.723Z,28.89
2022-08-12T11:48:50.928Z,28.92
2022-08-12T11:50:32.081Z,28.92
2022-08-12T11:52:04.317Z,28.89
2022-08-12T11:53:59.536Z,28.88
2022-08-12T11:55:33.189Z,28.83
2022-08-12T11:58:01.207Z,28.77
2022-08-12T12:02:45.463Z,28.89
2022-08-12T12:04:29.407Z,29.07
2022-08-12T12:06:01.364Z,29.30
2022-08-12T12:08:36.363Z,29.44
2022-08-12T12:09:25.558Z,29.66
2022-08-12T12:10:57.147Z,29.80
2022-08-12T12:12:31.173Z,29.91
2022-08-12T12:14:08.271Z,29.99
2022-08-12T12:15:42.813Z,30.07
2022-08-12T12:17:14.469Z,30.23
2022-08-12T12:18:46.633Z,30.43
2022-08-12T12:20:18.246Z,30.60
2022-08-12T12:21:49.878Z,30.82
2022-08-12T12:23:29.200Z,30.99
2022-08-12T12:25:12.705Z,31.13
2022-08-12T12:26:45.089Z,31.20
2022-08-12T12:28:36.597Z,31.22
2022-08-12T12:30:19.123Z,31.15
2022-08-12T12:32:09.014Z,31.08
2022-08-12T12:33:57.192Z,31.08
2022-08-12T12:36:19.661Z,31.13
2022-08-12T12:37:58.952Z,31.00
2022-08-12T12:39:13.426Z,30.84
2022-08-12T12:40:50.389Z,30.63
2022-08-12T12:42:54.622Z,30.52
2022-08-12T12:44:38.529Z,30.62
2022-08-12T12:46:05.914Z,30.83
2022-08-12T12:47:37.612Z,30.95
2022-08-12T12:49:10.891Z,31.01
2022-08-12T12:50:51.658Z,31.05
2022-08-12T12:52:27.023Z,31.03
2022-08-12T12:54:08.095Z,31.04
2022-08-12T12:55:42.084Z,31.07
2022-08-12T12:57:15.034Z,31.09
2022-08-12T12:58:49.995Z,31.10
2022-08-12T13:00:21.633Z,31.11
2022-08-12T13:01:53.284Z,31.15
2022-08-12T13:03:24.907Z,31.13
2022-08-12T13:04:56.752Z,31.12
2022-08-12T13:06:32.471Z,31.04
2022-08-12T13:08:28.522Z,30.92
2022-08-12T13:10:07.387Z,30.53
2022-08-12T13:11:41.536Z,30.42
2022-08-12T13:14:07.501Z,30.30
2022-08-12T13:15:13.523Z,30.14
2022-08-12T13:17:06.136Z,30.02
2022-08-12T13:18:37.920Z,29.94
2022-08-12T13:20:09.707Z,29.86
2022-08-12T13:22:01.361Z,29.78
2022-08-12T13:23:36.216Z,29.68
2022-08-12T13:25:09.318Z,29.61
2022-08-12T13:26:41.148Z,29.59
2022-08-12T13:28:43.155Z,29.53
2022-08-12T13:30:15.907Z,29.50
2022-08-12T13:32:18.950Z,29.43
2022-08-12T13:34:28.439Z,29.51
2022-08-12T13:36:06.407Z,29.55
2022-08-12T13:37:28.129Z,29.60
2022-08-12T13:39:16.331Z,29.67
2022-08-12T13:40:49.148Z,29.76
2022-08-12T13:42:22.959Z,29.95
2022-08-12T13:43:55.026Z,30.01
2022-08-12T13:45:29.061Z,30.10
2022-08-12T13:47:01.070Z,30.15
2022-08-12T13:48:44.913Z,30.08
2022-08-12T13:50:17.307Z,30.02
2022-08-12T13:51:54.103Z,29.88
2022-08-12T13:53:29.569Z,29.77
2022-08-12T13:55:23.143Z,29.74
2022-08-12T13:57:03.120Z,29.72
2022-08-12T13:58:46.800Z,29.73
2022-08-12T14:00:34.324Z,29.64
2022-08-12T14:02:13.671Z,29.57
2022-08-12T14:03:51.128Z,29.52
2022-08-12T14:05:37.504Z,29.44
2022-08-12T14:07:10.459Z,29.32
2022-08-12T14:08:43.019Z,29.19
2022-08-12T14:10:33.447Z,29.03
2022-08-12T14:12:06.391Z,28.95
2022-08-12T14:14:06.104Z,28.84
2022-08-12T14:15:47.754Z,28.69
2022-08-12T14:17:19.708Z,28.57
2022-08-12T14:18:51.789Z,28.45
2022-08-12T14:20:23.428Z,28.42
2022-08-12T14:22:04.576Z,28.35
2022-08-12T14:24:01.180Z,28.28
2022-08-12T14:25:34.758Z,28.24
2022-08-12T14:27:09.169Z,28.02
2022-08-12T14:28:45.445Z,27.81
2022-08-12T14:30:29.889Z,27.57
2022-08-12T14:32:01.614Z,27.42
2022-08-12T14:33:44.328Z,27.30
2022-08-12T14:35:16.143Z,27.15
2022-08-12T14:36:47.743Z,27.07
2022-08-12T14:38:26.166Z,26.88
2022-08-12T14:39:57.957Z,26.78
2022-08-12T14:41:37.095Z,26.78
2022-08-12T14:43:31.414Z,26.86
2022-08-12T14:45:07.028Z,26.92
2022-08-12T14:46:39.345Z,26.89
2022-08-12T14:48:12.038Z,26.80
2022-08-12T14:50:37.327Z,26.79
2022-08-12T14:53:12.214Z,26.85
2022-08-12T14:57:20.235Z,27.08
2022-08-12T14:59:23.714Z,27.18
2022-08-12T15:01:14.322Z,27.37
2022-08-12T15:02:46.773Z,27.46
2022-08-12T15:04:26.190Z,27.52
2022-08-12T15:06:05.419Z,27.56
2022-08-12T15:07:48.670Z,27.54
2022-08-12T15:09:29.311Z,27.51
2022-08-12T15:11:03.079Z,27.42
2022-08-12T15:12:34.834Z,27.40
2022-08-12T15:14:13.793Z,27.47
2022-08-12T15:15:46.011Z,27.54
2022-08-12T15:17:37.433Z,27.61
2022-08-12T15:20:10.715Z,27.64
2022-08-12T15:21:05.514Z,27.60
2022-08-12T15:22:53.759Z,27.56
2022-08-12T15:24:25.892Z,27.44
2022-08-12T15:26:00.014Z,27.33
2022-08-12T15:28:03.781Z,27.24
2022-08-12T15:29:35.127Z,27.16
2022-08-12T15:31:21.274Z,27.09
2022-08-12T15:32:59.366Z,27.02
2022-08-12T15:34:33.481Z,26.95
2022-08-12T15:36:07.772Z,26.84
2022-08-12T15:38:08.932Z,26.76
2022-08-12T15:39:31.253Z,26.64
2022-08-12T15:41:06.282Z,26.55
2022-08-12T15:42:38.210Z,26.52
2022-08-12T15:44:36.529Z,26.47
2022-08-12T15:46:05.130Z,26.46
2022-08-12T15:47:49.588Z,26.45
2022-08-12T15:49:22.702Z,26.37
2022-08-12T15:50:55.097Z,26.34
2022-08-12T15:52:28.379Z,26.29
2022-08-12T15:54:30.835Z,26.28
2022-08-12T15:56:00.773Z,26.18
2022-08-12T15:57:33.625Z,26.08
2022-08-12T15:59:05.711Z,26.01
2022-08-12T16:00:38.119Z,26.00
2022-08-12T16:02:10.235Z,26.01
2022-08-12T16:04:00.021Z,25.99
2022-08-12T16:06:10.191Z,25.99
2022-08-12T16:07:30.270Z,26.02
2022-08-12T16:09:09.812Z,26.06
2022-08-12T16:10:42.731Z,26.00
2022-08-12T16:12:14.798Z,26.03
2022-08-12T16:13:46.498Z,26.07
2022-08-12T16:15:19.533Z,26.01
2022-08-12T16:16:53.847Z,25.89
2022-08-12T16:18:26.170Z,25.84
2022-08-12T16:20:04.182Z,25.85
2022-08-12T16:21:51.882Z,25.83
2022-08-12T16:23:51.906Z,25.78
2022-08-12T16:25:28.400Z,25.81
2022-08-12T16:27:14.903Z,25.84
2022-08-12T16:28:47.222Z,25.84
2022-08-12T16:30:19.733Z,25.80
2022-08-12T16:32:01.120Z,25.82
2022-08-12T16:33:56.238Z,25.82
2022-08-12T16:35:31.215Z,25.80
2022-08-12T16:37:08.027Z,25.74
2022-08-12T16:38:40.730Z,25.72
2022-08-12T16:40:18.764Z,25.72
2022-08-12T16:41:50.834Z,25.71
2022-08-12T16:43:26.334Z,25.68
2022-08-12T16:45:02.222Z,25.64
2022-08-12T16:46:34.252Z,25.60
2022-08-12T16:48:06.365Z,25.60
2022-08-12T16:49:43.542Z,25.56
2022-08-12T16:51:15.429Z,25.52
2022-08-12T16:52:47.762Z,25.51
2022-08-12T16:54:26.513Z,25.53
2022-08-12T16:56:04.311Z,25.56
2022-08-12T16:57:37.025Z,25.54
2022-08-12T16:59:16.105Z,25.51
2022-08-12T17:00:51.399Z,25.49
2022-08-12T17:02:34.064Z,25.48
2022-08-12T17:04:09.569Z,25.45
2022-08-12T17:05:42.508Z,25.48
2022-08-12T17:07:19.916Z,25.49
2022-08-12T17:08:55.741Z,25.43
2022-08-12T17:10:35.908Z,25.42
2022-08-12T17:12:09.599Z,25.42
2022-08-12T17:13:53.257Z,25.42
2022-08-12T17:15:57.510Z,25.39
2022-08-12T17:17:38.678Z,25.33
2022-08-12T17:19:11.521Z,25.32
2022-08-12T17:20:44.582Z,25.32
2022-08-12T17:22:21.770Z,25.26
2022-08-12T17:23:54.572Z,25.14
2022-08-12T17:25:26.190Z,24.99
2022-08-12T17:27:09.454Z,24.98
2022-08-12T17:28:52.156Z,24.95
2022-08-12T17:30:24.710Z,24.86
2022-08-12T17:32:02.768Z,24.78
2022-08-12T17:33:35.890Z,24.67
2022-08-12T17:35:37.306Z,24.59
2022-08-12T17:37:09.288Z,24.48
2022-08-12T17:38:50.615Z,24.45
2022-08-12T17:40:35.649Z,24.41
2022-08-12T17:42:11.223Z,24.34
2022-08-12T17:43:59.722Z,24.33
2022-08-12T17:45:32.950Z,24.33
2022-08-12T17:47:06.400Z,24.35
2022-08-12T17:48:55.305Z,24.34
2022-08-12T17:50:29.841Z,24.34
2022-08-12T17:52:02.633Z,24.35
2022-08-12T17:54:05.767Z,24.33
2022-08-12T17:55:40.263Z,24.33
2022-08-12T17:57:17.655Z,24.35
2022-08-12T17:58:57.994Z,24.32
2022-08-12T18:00:30.706Z,24.32
2022-08-12T18:02:03.176Z,24.31
2022-08-12T18:03:57.480Z,24.30
2022-08-12T18:05:43.429Z,24.36
2022-08-12T18:07:23.890Z,24.35
2022-08-12T18:09:09.466Z,24.34
2022-08-12T18:11:02.883Z,24.31
2022-08-12T18:12:49.849Z,24.31
2022-08-12T18:14:28.128Z,24.30
2022-08-12T18:16:06.646Z,24.32
2022-08-12T18:17:39.677Z,24.29
2022-08-12T18:19:11.507Z,24.24
2022-08-12T18:20:44.995Z,24.19
2022-08-12T18:22:21.887Z,24.21
2022-08-12T18:24:00.955Z,24.24
2022-08-12T18:26:16.831Z,24.26
2022-08-12T18:27:47.208Z,24.27
2022-08-12T18:29:19.335Z,24.28
2022-08-12T18:30:55.177Z,24.29
2022-08-12T18:32:35.250Z,24.24
2022-08-12T18:34:24.256Z,24.23
2022-08-12T18:35:58.254Z,24.24
2022-08-12T18:37:42.191Z,24.24
2022-08-12T18:39:20.186Z,24.21
2022-08-12T18:41:10.798Z,24.18
2022-08-12T18:42:46.923Z,24.13
2022-08-12T18:44:28.143Z,24.04
2022-08-12T18:45:59.955Z,24.01
2022-08-12T18:47:46.848Z,23.98
2022-08-12T18:49:39.292Z,23.95
2022-08-12T18:51:21.765Z,23.97
2022-08-12T18:53:04.733Z,23.92
2022-08-12T18:54:41.561Z,23.86
2022-08-12T18:56:32.937Z,23.77
2022-08-12T18:58:10.135Z,23.69
2022-08-12T19:00:02.301Z,23.61
2022-08-12T19:02:19.688Z,23.52
2022-08-12T19:03:39.586Z,23.46
2022-08-12T19:05:12.485Z,23.39
2022-08-12T19:06:46.482Z,23.31
2022-08-12T19:08:18.909Z,23.26
2022-08-12T19:09:58.727Z,23.24
2022-08-12T19:11:50.769Z,23.21
2022-08-12T19:13:43.590Z,23.17
2022-08-12T19:15:15.692Z,23.09
2022-08-12T19:16:51.668Z,23.08
2022-08-12T19:18:26.090Z,23.05
2022-08-12T19:20:03.994Z,23.04
2022-08-12T19:21:37.178Z,23.01
2022-08-12T19:23:16.356Z,22.97
2022-08-12T19:25:11.061Z,22.95
2022-08-12T19:26:43.358Z,22.92
2022-08-12T19:28:19.477Z,22.93
2022-08-12T19:30:06.937Z,22.98
2022-08-12T19:31:58.743Z,22.93
2022-08-12T19:33:33.368Z,22.72
2022-08-12T19:36:58.090Z,22.55
2022-08-12T19:38:30.011Z,22.54
2022-08-12T19:40:09.601Z,22.49
2022-08-12T19:41:55.921Z,22.50
2022-08-12T19:43:59.476Z,22.51
2022-08-12T19:45:43.906Z,22.58
2022-08-12T19:47:18.977Z,22.63
2022-08-12T19:48:58.789Z,22.66
2022-08-12T19:50:37.466Z,22.71
2022-08-12T19:52:10.344Z,22.76
2022-08-12T19:53:57.892Z,22.84
2022-08-12T19:55:31.774Z,22.88
2022-08-12T19:57:11.015Z,22.90
2022-08-12T19:58:43.000Z,22.92
2022-08-12T20:00:22.638Z,22.89
2022-08-12T20:02:03.242Z,22.88
2022-08-12T20:03:38.584Z,22.87
2022-08-12T20:06:07.232Z,22.92
2022-08-12T20:07:22.915Z,22.93
2022-08-12T20:08:57.139Z,22.93
2022-08-12T20:10:35.093Z,22.96
2022-08-12T20:12:15.177Z,22.95
2022-08-12T20:14:00.264Z,22.90
2022-08-12T20:15:45.079Z,22.91
2022-08-12T20:17:17.280Z,22.90
2022-08-12T20:18:58.247Z,22.89
2022-08-12T20:20:30.207Z,22.94
2022-08-12T20:22:08.690Z,22.95
2022-08-12T20:23:59.543Z,22.93
2022-08-12T20:25:52.516Z,22.90
2022-08-12T20:27:29.449Z,22.90
2022-08-12T20:29:18.311Z,22.84
2022-08-12T20:30:59.986Z,22.74
2022-08-12T20:32:37.652Z,22.67
2022-08-12T20:34:19.956Z,22.64
2022-08-12T20:36:13.289Z,22.59
2022-08-12T20:38:07.047Z,22.56
2022-08-12T20:39:53.442Z,22.46
2022-08-12T20:41:29.511Z,22.40
2022-08-12T20:43:01.519Z,22.38
2022-08-12T20:44:39.830Z,22.36
2022-08-12T20:46:13.439Z,22.35
2022-08-12T20:47:46.750Z,22.36
2022-08-12T20:49:26.848Z,22.35
2022-08-12T20:51:04.311Z,22.32
2022-08-12T20:52:38.146Z,22.32
2022-08-12T20:54:10.123Z,22.34
2022-08-12T20:55:46.974Z,22.38
2022-08-12T20:57:37.828Z,22.41
2022-08-12T20:59:11.254Z,22.42
2022-08-12T21:00:46.857Z,22.44
2022-08-12T21:02:24.139Z,22.46
2022-08-12T21:04:14.966Z,22.44
2022-08-12T21:06:12.510Z,22.46
2022-08-12T21:07:47.793Z,22.47
2022-08-12T21:09:30.996Z,22.45
2022-08-12T21:11:03.923Z,22.48
2022-08-12T21:12:37.248Z,22.48
2022-08-12T21:14:10.537Z,22.46
2022-08-12T21:15:55.223Z,22.46
2022-08-12T21:18:01.054Z,22.39
2022-08-12T21:19:25.883Z,22.37
2022-08-12T21:21:23.808Z,22.35
2022-08-12T21:22:56.143Z,22.33
2022-08-12T21:24:32.496Z,22.32
2022-08-12T21:26:11.393Z,22.29
2022-08-12T21:27:57.825Z,22.26
2022-08-12T21:29:40.155Z,22.23
2022-08-12T21:32:36.837Z,22.24
2022-08-12T21:33:18.592Z,22.17
2022-08-12T21:34:51.683Z,22.14
2022-08-12T21:36:34.751Z,22.15
2022-08-12T21:38:07.031Z,22.14
2022-08-12T21:39:39.142Z,22.14
2022-08-12T21:41:16.014Z,22.09
2022-08-12T21:42:48.031Z,22.08
2022-08-12T21:44:24.272Z,22.05
2022-08-12T21:46:34.649Z,22.03
2022-08-12T21:48:10.180Z,22.03
2022-08-12T21:49:55.434Z,22.04
2022-08-12T21:51:49.578Z,22.01
2022-08-12T21:53:22.034Z,21.96
2022-08-12T21:55:08.116Z,21.97
2022-08-12T21:56:47.666Z,22.00
2022-08-12T21:58:21.252Z,22.02
2022-08-12T21:59:54.804Z,22.03
2022-08-12T22:01:26.488Z,22.06
2022-08-12T22:04:01.599Z,22.11
2022-08-12T22:05:31.391Z,22.15
2022-08-12T22:07:03.201Z,22.15
2022-08-12T22:08:35.298Z,22.12
2022-08-12T22:10:07.893Z,22.12
2022-08-12T22:11:56.491Z,22.07
2022-08-12T22:14:04.217Z,22.02
2022-08-12T22:15:22.658Z,22.01
2022-08-12T22:16:55.155Z,21.98
2022-08-12T22:18:27.945Z,21.98
2022-08-12T22:20:02.309Z,21.94
2022-08-12T22:21:37.867Z,21.91
2022-08-12T22:23:21.619Z,21.86
2022-08-12T22:25:00.377Z,21.84
2022-08-12T22:26:37.631Z,21.84
2022-08-12T22:28:28.591Z,21.84
2022-08-12T22:30:29.745Z,21.85
2022-08-12T22:32:02.451Z,21.89
2022-08-12T22:33:50.779Z,21.91
2022-08-12T22:35:56.080Z,21.94
2022-08-12T22:37:23.733Z,21.95
2022-08-12T22:38:56.385Z,21.95
2022-08-12T22:40:29.320Z,21.91
2022-08-12T22:42:19.840Z,21.92
2022-08-12T22:44:10.619Z,21.91
2022-08-12T22:46:01.572Z,21.90
2022-08-12T22:47:51.133Z,21.90
2022-08-12T22:49:36.911Z,21.91
2022-08-12T22:51:22.348Z,21.87
2022-08-12T22:53:15.085Z,21.80
2022-08-12T22:55:03.566Z,21.77
2022-08-12T22:56:37.072Z,21.71
2022-08-12T22:58:12.564Z,21.68
2022-08-12T22:59:55.201Z,21.66
2022-08-12T23:01:52.096Z,21.64
2022-08-12T23:03:49.727Z,21.73
2022-08-12T23:05:16.668Z,21.76
2022-08-12T23:06:49.516Z,21.76
2022-08-12T23:08:29.682Z,21.74
2022-08-12T23:10:02.230Z,21.69
2022-08-12T23:11:40.899Z,21.70
2022-08-12T23:13:43.890Z,21.70
2022-08-12T23:15:16.400Z,21.66
2022-08-12T23:16:50.389Z,21.67
2022-08-12T23:18:24.014Z,21.68
2022-08-12T23:20:05.318Z,21.68
2022-08-12T23:22:03.316Z,21.69
2022-08-12T23:23:29.833Z,21.70
2022-08-12T23:25:21.423Z,21.70
2022-08-12T23:27:22.682Z,21.72
2022-08-12T23:29:30.125Z,21.81
2022-08-12T23:31:06.399Z,21.85
2022-08-12T23:32:38.392Z,21.87
2022-08-12T23:34:10.430Z,21.91
2022-08-12T23:35:53.530Z,21.94
2022-08-12T23:37:47.299Z,21.95
2022-08-12T23:40:13.158Z,21.99
2022-08-12T23:41:25.791Z,21.99
2022-08-12T23:43:01.178Z,22.03
2022-08-12T23:44:33.710Z,22.05
2022-08-12T23:46:08.880Z,22.05
2022-08-12T23:47:43.957Z,22.07
2022-08-12T23:49:55.784Z,22.02
2022-08-12T23:51:21.956Z,21.99
2022-08-12T23:52:55.463Z,21.96
2022-08-12T23:54:38.721Z,21.95
2022-08-12T23:56:11.375Z,21.93
2022-08-12T23:58:17.462Z,21.97
2022-08-12T23:59:36.129Z,21.95
